createdAt,value
2022-10-02T00:01:27.807Z,100.00
2022-10-02T00:03:54.516Z,100.00
2022-10-02T00:06:23.664Z,100.00
2022-10-02T00:08:52.852Z,100.00
2022-10-02T00:11:22.942Z,100.00
2022-10-02T00:13:58.402Z,100.00
2022-10-02T00:16:41.538Z,100.00
2022-10-02T00:19:12.353Z,100.00
2022-10-02T00:21:38.969Z,100.00
2022-10-02T00:24:06.966Z,100.00
2022-10-02T00:27:02.869Z,100.00
2022-10-02T00:29:29.702Z,100.00
2022-10-02T00:31:56.335Z,100.00
2022-10-02T00:34:32.113Z,100.00
2022-10-02T00:37:16.975Z,100.00
2022-10-02T00:39:55.809Z,100.00
2022-10-02T00:42:34.862Z,100.00
2022-10-02T00:45:19.617Z,100.00
2022-10-02T00:47:53.501Z,100.00
2022-10-02T00:50:31.953Z,100.00
2022-10-02T00:53:01.592Z,100.00
2022-10-02T00:55:28.135Z,100.00
2022-10-02T00:58:02.281Z,100.00
2022-10-02T01:00:28.909Z,100.00
2022-10-02T01:03:04.635Z,100.00
2022-10-02T01:05:32.750Z,100.00
2022-10-02T01:07:59.449Z,100.00
2022-10-02T01:10:26.660Z,100.00
2022-10-02T01:12:54.288Z,100.00
2022-10-02T01:15:22.574Z,100.00
2022-10-02T01:17:52.475Z,100.00
2022-10-02T01:20:22.759Z,100.00
2022-10-02T01:23:08.397Z,100.00
2022-10-02T01:25:35.026Z,100.00
2022-10-02T01:28:01.766Z,100.00
2022-10-02T01:30:29.906Z,100.00
2022-10-02T01:32:58.028Z,100.00
2022-10-02T01:35:31.635Z,100.00
2022-10-02T01:37:59.141Z,100.00
2022-10-02T01:40:28.311Z,100.00
2022-10-02T01:42:56.213Z,100.00
2022-10-02T01:45:30.318Z,100.00
2022-10-02T01:48:08.941Z,100.00
2022-10-02T01:50:58.566Z,100.00
2022-10-02T01:53:33.181Z,100.00
2022-10-02T01:56:15.565Z,100.00
2022-10-02T01:58:51.885Z,100.00
2022-10-02T02:01:24.266Z,100.00
2022-10-02T02:04:10.381Z,100.00
2022-10-02T02:06:46.389Z,100.00
2022-10-02T02:09:18.612Z,100.00
2022-10-02T02:11:50.190Z,100.00
2022-10-02T02:14:22.837Z,100.00
2022-10-02T02:17:05.694Z,100.00
2022-10-02T02:19:39.989Z,100.00
2022-10-02T02:22:17.440Z,100.00
2022-10-02T02:25:04.719Z,100.00
2022-10-02T02:27:34.817Z,100.00
2022-10-02T02:30:04.230Z,100.00
2022-10-02T02:32:35.278Z,100.00
2022-10-02T02:35:07.672Z,100.00
2022-10-02T02:37:36.325Z,100.00
2022-10-02T02:40:12.332Z,100.00
2022-10-02T02:42:42.452Z,100.00
2022-10-02T02:45:27.407Z,100.00
2022-10-02T02:48:09.512Z,100.00
2022-10-02T02:50:44.784Z,100.00
2022-10-02T02:53:11.324Z,100.00
2022-10-02T02:55:44.927Z,100.00
2022-10-02T02:58:18.112Z,100.00
2022-10-02T03:00:44.829Z,100.00
2022-10-02T03:03:11.588Z,100.00
2022-10-02T03:05:42.650Z,100.00
2022-10-02T03:08:13.668Z,100.00
2022-10-02T03:10:40.270Z,100.00
2022-10-02T03:13:27.165Z,100.00
2022-10-02T03:16:16.975Z,100.00
2022-10-02T03:18:46.603Z,100.00
2022-10-02T03:21:27.345Z,100.00
2022-10-02T03:24:14.711Z,100.00
2022-10-02T03:26:45.327Z,100.00
2022-10-02T03:29:25.432Z,100.00
2022-10-02T03:31:53.191Z,100.00
2022-10-02T03:34:19.865Z,100.00
2022-10-02T03:36:46.929Z,100.00
2022-10-02T03:39:24.723Z,100.00
2022-10-02T03:41:52.038Z,100.00
2022-10-02T03:44:18.656Z,100.00
2022-10-02T03:46:45.276Z,100.00
2022-10-02T03:49:11.872Z,100.00
2022-10-02T03:51:38.468Z,100.00
2022-10-02T03:54:13.065Z,100.00
2022-10-02T03:56:46.601Z,100.00
2022-10-02T03:59:17.459Z,100.00
2022-10-02T04:01:49.411Z,98.81
2022-10-02T04:04:23.331Z,100.00
2022-10-02T04:07:06.380Z,98.51
2022-10-02T04:09:51.652Z,98.29
2022-10-02T04:12:24.051Z,97.91
2022-10-02T04:14:54.276Z,98.90
2022-10-02T04:17:24.295Z,97.88
2022-10-02T04:19:57.855Z,97.75
2022-10-02T04:22:27.613Z,98.22
2022-10-02T04:25:05.525Z,98.87
2022-10-02T04:27:38.536Z,99.63
2022-10-02T04:30:07.013Z,98.71
2022-10-02T04:32:34.496Z,97.60
2022-10-02T04:35:02.842Z,97.44
2022-10-02T04:37:39.556Z,98.23
2022-10-02T04:40:09.251Z,98.19
2022-10-02T04:42:55.824Z,98.25
2022-10-02T04:45:41.410Z,99.26
2022-10-02T04:48:08.005Z,98.55
2022-10-02T04:50:34.558Z,97.49
2022-10-02T04:53:14.329Z,97.41
2022-10-02T04:55:40.883Z,98.24
2022-10-02T04:58:25.962Z,98.10
2022-10-02T05:00:52.590Z,98.13
2022-10-02T05:03:22.244Z,98.32
2022-10-02T05:06:07.361Z,98.96
2022-10-02T05:08:42.464Z,98.83
2022-10-02T05:11:27.544Z,98.54
2022-10-02T05:14:11.287Z,98.92
2022-10-02T05:16:41.015Z,99.12
2022-10-02T05:19:19.318Z,98.68
2022-10-02T05:21:51.995Z,98.60
2022-10-02T05:24:36.473Z,98.72
2022-10-02T05:27:12.103Z,98.47
2022-10-02T05:29:38.676Z,98.33
2022-10-02T05:32:23.768Z,98.69
2022-10-02T05:34:53.590Z,99.05
2022-10-02T05:37:38.652Z,99.05
2022-10-02T05:40:17.471Z,98.45
2022-10-02T05:42:55.770Z,98.25
2022-10-02T05:45:34.730Z,98.10
2022-10-02T05:48:05.193Z,97.65
2022-10-02T05:50:34.297Z,97.64
2022-10-02T05:53:03.588Z,97.24
2022-10-02T05:55:30.146Z,97.51
2022-10-02T05:58:16.944Z,98.04
2022-10-02T06:00:47.985Z,97.45
2022-10-02T06:03:18.912Z,97.64
2022-10-02T06:05:55.311Z,97.85
2022-10-02T06:08:31.600Z,97.78
2022-10-02T06:11:03.133Z,97.49
2022-10-02T06:13:50.622Z,97.07
2022-10-02T06:16:24.249Z,96.89
2022-10-02T06:18:54.291Z,97.70
2022-10-02T06:21:23.689Z,97.52
2022-10-02T06:23:52.695Z,96.37
2022-10-02T06:26:34.983Z,97.28
2022-10-02T06:29:05.148Z,96.88
2022-10-02T06:31:34.852Z,97.49
2022-10-02T06:34:01.488Z,96.86
2022-10-02T06:36:28.178Z,97.00
2022-10-02T06:39:17.969Z,94.89
2022-10-02T06:41:47.504Z,95.65
2022-10-02T06:44:20.248Z,95.46
2022-10-02T06:46:51.188Z,95.95
2022-10-02T06:49:25.228Z,95.68
2022-10-02T06:52:08.020Z,94.35
2022-10-02T06:54:45.530Z,95.24
2022-10-02T06:57:41.542Z,95.17
2022-10-02T07:00:18.235Z,95.46
2022-10-02T07:02:50.981Z,95.49
2022-10-02T07:05:32.667Z,95.53
2022-10-02T07:08:12.136Z,94.55
2022-10-02T07:10:44.558Z,95.67
2022-10-02T07:13:26.488Z,94.18
2022-10-02T07:15:55.913Z,94.86
2022-10-02T07:18:35.016Z,94.73
2022-10-02T07:21:10.530Z,93.96
2022-10-02T07:23:40.250Z,94.71
2022-10-02T07:26:33.301Z,95.13
2022-10-02T07:29:16.512Z,95.05
2022-10-02T07:31:43.233Z,95.61
2022-10-02T07:34:13.155Z,95.52
2022-10-02T07:36:39.794Z,95.29
2022-10-02T07:39:10.165Z,95.01
2022-10-02T07:41:45.986Z,93.59
2022-10-02T07:44:18.603Z,94.70
2022-10-02T07:47:03.780Z,94.57
2022-10-02T07:49:45.476Z,95.07
2022-10-02T07:52:12.107Z,94.72
2022-10-02T07:54:44.824Z,92.46
2022-10-02T07:57:20.689Z,92.57
2022-10-02T07:59:49.009Z,93.75
2022-10-02T08:02:51.232Z,94.25
2022-10-02T08:05:23.376Z,94.54
2022-10-02T08:07:52.419Z,94.76
2022-10-02T08:10:21.872Z,95.10
2022-10-02T08:13:05.033Z,95.56
2022-10-02T08:15:34.885Z,96.14
2022-10-02T08:18:30.209Z,96.51
2022-10-02T08:20:53.833Z,95.93
2022-10-02T08:23:34.095Z,95.65
2022-10-02T08:26:00.801Z,94.82
2022-10-02T08:28:32.012Z,92.59
2022-10-02T08:30:58.929Z,92.72
2022-10-02T08:33:25.782Z,92.85
2022-10-02T08:36:07.922Z,92.36
2022-10-02T08:38:41.858Z,92.87
2022-10-02T08:41:08.712Z,93.04
2022-10-02T08:43:54.188Z,93.85
2022-10-02T08:46:22.165Z,93.81
2022-10-02T08:48:55.359Z,94.30
2022-10-02T08:51:25.668Z,91.15
2022-10-02T08:53:54.975Z,92.91
2022-10-02T08:56:21.568Z,93.50
2022-10-02T08:58:50.958Z,92.10
2022-10-02T09:01:35.093Z,93.11
2022-10-02T09:04:09.284Z,94.50
2022-10-02T09:06:39.162Z,93.42
2022-10-02T09:09:24.249Z,93.53
2022-10-02T09:12:02.407Z,92.82
2022-10-02T09:14:48.361Z,91.65
2022-10-02T09:17:39.501Z,92.90
2022-10-02T09:20:18.515Z,91.29
2022-10-02T09:22:48.113Z,88.35
2022-10-02T09:25:21.973Z,89.88
2022-10-02T09:28:07.401Z,90.40
2022-10-02T09:30:57.619Z,90.11
2022-10-02T09:33:30.130Z,91.96
2022-10-02T09:36:02.481Z,88.79
2022-10-02T09:38:47.825Z,90.28
2022-10-02T09:41:17.196Z,92.03
2022-10-02T09:43:51.255Z,92.38
2022-10-02T09:46:30.520Z,92.34
2022-10-02T09:49:20.128Z,92.29
2022-10-02T09:52:05.696Z,89.05
2022-10-02T09:54:44.100Z,91.37
2022-10-02T09:57:22.776Z,88.45
2022-10-02T09:59:55.369Z,89.74
2022-10-02T10:02:31.164Z,89.81
2022-10-02T10:05:16.212Z,87.83
2022-10-02T10:08:01.593Z,85.71
2022-10-02T10:10:28.341Z,86.91
2022-10-02T10:12:57.792Z,87.40
2022-10-02T10:15:43.030Z,89.14
2022-10-02T10:18:09.880Z,87.84
2022-10-02T10:20:36.748Z,89.21
2022-10-02T10:23:21.973Z,85.25
2022-10-02T10:25:50.394Z,87.00
2022-10-02T10:28:37.940Z,86.95
2022-10-02T10:31:13.650Z,88.30
2022-10-02T10:33:59.899Z,85.61
2022-10-02T10:36:52.660Z,88.02
2022-10-02T10:39:26.815Z,86.74
2022-10-02T10:41:53.356Z,86.74
2022-10-02T10:44:30.145Z,87.67
2022-10-02T10:47:05.800Z,87.45
2022-10-02T10:49:41.496Z,84.86
2022-10-02T10:52:35.710Z,85.02
2022-10-02T10:55:16.777Z,87.44
2022-10-02T10:57:43.315Z,88.05
2022-10-02T11:00:16.339Z,81.32
2022-10-02T11:03:01.725Z,77.26
2022-10-02T11:05:51.949Z,75.19
2022-10-02T11:08:18.604Z,77.88
2022-10-02T11:10:57.477Z,64.46
2022-10-02T11:13:26.952Z,68.84
2022-10-02T11:15:53.732Z,80.11
2022-10-02T11:18:31.477Z,78.60
2022-10-02T11:20:58.040Z,74.66
2022-10-02T11:23:30.748Z,75.16
2022-10-02T11:26:23.929Z,75.90
2022-10-02T11:29:08.948Z,75.92
2022-10-02T11:31:35.917Z,74.44
2022-10-02T11:34:21.580Z,76.36
2022-10-02T11:36:59.414Z,72.17
2022-10-02T11:39:32.187Z,72.31
2022-10-02T11:42:17.747Z,63.40
2022-10-02T11:44:47.561Z,70.23
2022-10-02T11:47:32.790Z,70.86
2022-10-02T11:50:24.859Z,72.52
2022-10-02T11:53:04.541Z,65.76
2022-10-02T11:55:49.353Z,68.77
2022-10-02T11:58:28.300Z,71.22
2022-10-02T12:00:58.830Z,70.79
2022-10-02T12:03:36.146Z,70.79
2022-10-02T12:06:11.954Z,70.17
2022-10-02T12:08:42.937Z,71.05
2022-10-02T12:11:20.382Z,71.02
2022-10-02T12:14:01.183Z,72.39
2022-10-02T12:16:48.752Z,70.68
2022-10-02T12:19:15.425Z,68.25
2022-10-02T12:22:18.830Z,69.68
2022-10-02T12:25:13.160Z,69.50
2022-10-02T12:27:54.839Z,67.35
2022-10-02T12:30:30.420Z,67.58
2022-10-02T12:33:08.235Z,67.08
2022-10-02T12:35:40.961Z,66.68
2022-10-02T12:38:07.512Z,66.51
2022-10-02T12:40:45.007Z,67.52
2022-10-02T12:43:30.727Z,67.52
2022-10-02T12:46:07.967Z,67.25
2022-10-02T12:48:47.145Z,65.42
2022-10-02T12:51:16.861Z,67.90
2022-10-02T12:54:01.919Z,67.38
2022-10-02T12:56:34.372Z,66.98
2022-10-02T12:59:16.169Z,65.99
2022-10-02T13:01:58.244Z,67.46
2022-10-02T13:04:43.347Z,68.19
2022-10-02T13:07:30.391Z,68.70
2022-10-02T13:10:15.585Z,68.43
2022-10-02T13:12:42.172Z,69.47
2022-10-02T13:15:27.150Z,68.94
2022-10-02T13:18:06.896Z,68.45
2022-10-02T13:20:38.935Z,68.53
2022-10-02T13:23:05.502Z,69.56
2022-10-02T13:25:38.097Z,69.33
2022-10-02T13:28:13.873Z,69.74
2022-10-02T13:30:48.081Z,69.55
2022-10-02T13:33:17.425Z,70.83
2022-10-02T13:35:46.844Z,71.59
2022-10-02T13:38:22.856Z,71.46
2022-10-02T13:41:07.907Z,72.43
2022-10-02T13:43:34.701Z,72.73
2022-10-02T13:46:07.801Z,72.85
2022-10-02T13:48:54.997Z,73.02
2022-10-02T13:51:31.594Z,73.07
2022-10-02T13:54:06.120Z,73.61
2022-10-02T13:56:49.427Z,73.24
2022-10-02T13:59:34.483Z,73.41
2022-10-02T14:02:21.061Z,74.26
2022-10-02T14:04:56.617Z,74.10
2022-10-02T14:07:39.195Z,74.65
2022-10-02T14:10:15.113Z,74.70
2022-10-02T14:12:52.407Z,75.00
2022-10-02T14:15:19.028Z,74.79
2022-10-02T14:17:54.557Z,75.40
2022-10-02T14:20:27.060Z,75.37
2022-10-02T14:23:12.140Z,75.50
2022-10-02T14:25:52.076Z,75.79
2022-10-02T14:28:21.675Z,75.93
2022-10-02T14:31:00.537Z,76.14
2022-10-02T14:33:39.332Z,76.48
2022-10-02T14:36:11.924Z,76.53
2022-10-02T14:38:51.422Z,76.82
2022-10-02T14:41:18.254Z,76.75
2022-10-02T14:43:51.711Z,76.77
2022-10-02T14:46:27.700Z,77.07
2022-10-02T14:49:14.553Z,77.25
2022-10-02T14:52:00.000Z,77.33
2022-10-02T14:54:45.220Z,77.62
2022-10-02T14:57:20.862Z,77.81
2022-10-02T15:00:03.327Z,77.52
2022-10-02T15:02:51.680Z,77.96
2022-10-02T15:05:27.285Z,77.95
2022-10-02T15:07:53.877Z,77.76
2022-10-02T15:10:27.997Z,78.19
2022-10-02T15:12:57.377Z,78.29
2022-10-02T15:15:33.409Z,78.27
2022-10-02T15:18:03.383Z,78.62
2022-10-02T15:20:48.895Z,78.45
2022-10-02T15:23:41.563Z,78.68
2022-10-02T15:26:17.347Z,78.73
2022-10-02T15:28:58.971Z,78.82
2022-10-02T15:31:28.437Z,78.95
2022-10-02T15:34:31.158Z,78.98
2022-10-02T15:37:00.693Z,78.87
2022-10-02T15:39:33.154Z,79.02
2022-10-02T15:42:04.844Z,79.08
2022-10-02T15:44:49.606Z,79.28
2022-10-02T15:47:29.726Z,79.37
2022-10-02T15:49:56.507Z,79.62
2022-10-02T15:52:23.112Z,79.96
2022-10-02T15:54:55.742Z,79.82
2022-10-02T15:57:40.965Z,80.25
2022-10-02T16:00:15.487Z,80.14
2022-10-02T16:02:42.107Z,80.40
2022-10-02T16:05:29.974Z,80.76
2022-10-02T16:08:05.501Z,80.50
2022-10-02T16:10:54.881Z,80.77
2022-10-02T16:13:43.512Z,80.76
2022-10-02T16:16:19.130Z,80.70
2022-10-02T16:18:51.861Z,80.76
2022-10-02T16:21:39.358Z,81.08
2022-10-02T16:24:18.234Z,80.95
2022-10-02T16:26:54.232Z,80.93
2022-10-02T16:29:27.575Z,81.25
2022-10-02T16:31:54.309Z,81.24
2022-10-02T16:34:23.924Z,81.30
2022-10-02T16:36:50.537Z,81.21
2022-10-02T16:39:19.998Z,81.15
2022-10-02T16:42:05.132Z,81.65
2022-10-02T16:44:34.549Z,81.59
2022-10-02T16:47:04.603Z,81.39
2022-10-02T16:49:51.148Z,81.57
2022-10-02T16:52:39.189Z,81.58
2022-10-02T16:55:08.538Z,81.42
2022-10-02T16:57:35.223Z,81.52
2022-10-02T17:00:16.277Z,81.53
2022-10-02T17:02:46.250Z,81.37
2022-10-02T17:05:31.835Z,81.33
2022-10-02T17:08:05.626Z,81.38
2022-10-02T17:11:03.502Z,81.63
2022-10-02T17:13:42.848Z,81.21
2022-10-02T17:16:12.467Z,80.75
2022-10-02T17:18:48.500Z,80.78
2022-10-02T17:21:15.048Z,80.88
2022-10-02T17:23:44.491Z,80.95
2022-10-02T17:26:14.989Z,81.01
2022-10-02T17:28:51.023Z,81.43
2022-10-02T17:31:41.988Z,81.83
2022-10-02T17:34:14.788Z,81.75
2022-10-02T17:36:47.845Z,82.31
2022-10-02T17:39:23.301Z,82.46
2022-10-02T17:42:03.710Z,82.37
2022-10-02T17:44:45.213Z,82.51
2022-10-02T17:47:21.607Z,82.71
2022-10-02T17:50:03.347Z,82.85
2022-10-02T17:53:00.261Z,82.73
2022-10-02T17:55:45.691Z,83.20
2022-10-02T17:58:35.648Z,83.13
2022-10-02T18:01:05.917Z,83.58
2022-10-02T18:03:52.890Z,83.85
2022-10-02T18:06:35.642Z,84.21
2022-10-02T18:09:27.077Z,84.25
2022-10-02T18:11:59.828Z,85.04
2022-10-02T18:14:26.449Z,84.90
2022-10-02T18:17:06.011Z,84.96
2022-10-02T18:19:52.937Z,85.62
2022-10-02T18:22:27.004Z,85.96
2022-10-02T18:25:05.022Z,85.93
2022-10-02T18:27:50.475Z,86.27
2022-10-02T18:30:24.877Z,86.63
2022-10-02T18:32:55.774Z,86.35
2022-10-02T18:35:25.884Z,86.94
2022-10-02T18:38:12.826Z,87.22
2022-10-02T18:41:00.649Z,87.68
2022-10-02T18:43:30.253Z,87.89
2022-10-02T18:46:15.499Z,88.32
2022-10-02T18:48:57.178Z,88.72
2022-10-02T18:51:23.743Z,89.25
2022-10-02T18:54:02.194Z,89.39
2022-10-02T18:56:46.119Z,89.28
2022-10-02T18:59:19.585Z,89.93
2022-10-02T19:01:49.015Z,90.74
2022-10-02T19:04:23.174Z,90.86
2022-10-02T19:06:55.467Z,91.32
2022-10-02T19:09:27.477Z,91.59
2022-10-02T19:11:58.487Z,91.71
2022-10-02T19:14:36.246Z,92.08
2022-10-02T19:17:05.896Z,92.42
2022-10-02T19:19:33.268Z,92.42
2022-10-02T19:22:01.712Z,92.54
2022-10-02T19:24:31.697Z,92.51
2022-10-02T19:27:04.787Z,92.99
2022-10-02T19:29:36.783Z,93.16
2022-10-02T19:32:09.425Z,93.96
2022-10-02T19:34:36.094Z,94.29
2022-10-02T19:37:05.381Z,94.39
2022-10-02T19:39:36.913Z,94.79
2022-10-02T19:42:07.689Z,94.96
2022-10-02T19:44:45.625Z,95.14
2022-10-02T19:47:21.502Z,95.38
2022-10-02T19:49:50.771Z,95.52
2022-10-02T19:52:36.024Z,95.80
2022-10-02T19:55:27.238Z,96.00
2022-10-02T19:57:57.504Z,96.63
2022-10-02T20:00:24.293Z,96.80
2022-10-02T20:02:54.326Z,96.99
2022-10-02T20:05:22.884Z,97.63
2022-10-02T20:07:50.951Z,97.50
2022-10-02T20:10:23.427Z,97.73
2022-10-02T20:12:55.894Z,97.64
2022-10-02T20:15:42.561Z,97.71
2022-10-02T20:18:11.138Z,97.56
2022-10-02T20:20:37.935Z,97.65
2022-10-02T20:23:07.885Z,97.71
2022-10-02T20:25:40.165Z,98.24
2022-10-02T20:28:07.129Z,99.02
2022-10-02T20:30:41.816Z,98.76
2022-10-02T20:33:18.230Z,98.89
2022-10-02T20:35:48.082Z,98.52
2022-10-02T20:38:27.613Z,98.92
2022-10-02T20:40:54.656Z,99.19
2022-10-02T20:43:47.498Z,99.13
2022-10-02T20:46:14.074Z,99.58
2022-10-02T20:49:07.036Z,99.54
2022-10-02T20:51:52.797Z,99.45
2022-10-02T20:54:19.608Z,99.99
2022-10-02T20:57:04.700Z,99.93
2022-10-02T20:59:57.027Z,99.94
2022-10-02T21:02:23.704Z,100.00
2022-10-02T21:05:03.800Z,100.00
2022-10-02T21:07:30.979Z,100.00
2022-10-02T21:10:37.762Z,100.00
2022-10-02T21:13:25.000Z,100.00
2022-10-02T21:16:00.751Z,100.00
2022-10-02T21:18:27.309Z,100.00
2022-10-02T21:20:55.497Z,100.00
2022-10-02T21:23:40.920Z,100.00
2022-10-02T21:26:26.731Z,100.00
2022-10-02T21:28:56.074Z,100.00
2022-10-02T21:31:46.128Z,100.00
2022-10-02T21:34:42.220Z,100.00
2022-10-02T21:37:08.805Z,100.00
2022-10-02T21:39:38.394Z,100.00
2022-10-02T21:42:17.631Z,100.00
2022-10-02T21:45:04.329Z,100.00
2022-10-02T21:47:55.198Z,100.00
2022-10-02T21:50:25.218Z,100.00
2022-10-02T21:53:11.299Z,100.00
2022-10-02T21:55:41.198Z,100.00
2022-10-02T21:58:19.704Z,100.00
2022-10-02T22:00:55.143Z,100.00
2022-10-02T22:03:21.836Z,100.00
2022-10-02T22:06:07.282Z,100.00
2022-10-02T22:08:40.477Z,100.00
2022-10-02T22:11:11.263Z,100.00
2022-10-02T22:13:43.267Z,100.00
2022-10-02T22:16:09.920Z,100.00
2022-10-02T22:18:39.310Z,100.00
2022-10-02T22:21:21.247Z,100.00
2022-10-02T22:23:58.752Z,100.00
2022-10-02T22:26:25.358Z,100.00
2022-10-02T22:29:12.164Z,100.00
2022-10-02T22:32:17.218Z,100.00
2022-10-02T22:34:52.368Z,100.00
2022-10-02T22:37:27.095Z,100.00
2022-10-02T22:40:01.287Z,100.00
2022-10-02T22:42:39.329Z,100.00
2022-10-02T22:45:15.244Z,100.00
2022-10-02T22:47:54.201Z,100.00
2022-10-02T22:50:39.414Z,100.00
2022-10-02T22:53:23.559Z,100.00
2022-10-02T22:55:52.000Z,100.00
2022-10-02T22:58:29.241Z,100.00
2022-10-02T23:01:08.209Z,100.00
2022-10-02T23:03:45.267Z,100.00
2022-10-02T23:06:30.576Z,100.00
2022-10-02T23:09:07.013Z,100.00
2022-10-02T23:11:52.898Z,100.00
2022-10-02T23:14:22.812Z,100.00
2022-10-02T23:16:59.585Z,100.00
2022-10-02T23:19:29.656Z,100.00
2022-10-02T23:22:00.121Z,100.00
2022-10-02T23:24:28.440Z,100.00
2022-10-02T23:27:15.292Z,100.00
2022-10-02T23:29:44.991Z,100.00
2022-10-02T23:32:11.535Z,100.00
2022-10-02T23:34:41.184Z,100.00
2022-10-02T23:37:14.354Z,100.00
2022-10-02T23:39:40.893Z,100.00
2022-10-02T23:42:11.224Z,100.00
2022-10-02T23:44:43.704Z,100.00
2022-10-02T23:47:21.167Z,100.00
2022-10-02T23:49:50.757Z,100.00
2022-10-02T23:52:26.589Z,100.00
2022-10-02T23:55:06.126Z,100.00
2022-10-02T23:57:35.892Z,100.00
